Time;durP1;ratioP1;P1;durP2;ratioP2;P2;SDS_P1;SDS_P2;PMS_P1;PMS_P2;Temp;Humidity;BMP_temperature;BMP_pressure;BME280_temperature;BME280_humidity;BME280_pressure;Samples;Min_cycle;Max_cycle;Signal;HPM_P1;HPM_P2
2023/10/26 00:00:24;;;;;;;17.35;11.43;;;;;;;;;;5072268;28;20036;-78
2023/10/26 00:02:49;;;;;;;16.67;12.27;;;;;;;;;;5075619;28;20082;-79
2023/10/26 00:05:15;;;;;;;14.77;11.85;;;;;;;;;;5059387;28;20427;-79
2023/10/26 00:07:40;;;;;;;15.05;11.90;;;;;;;;;;5072655;28;20041;-79
2023/10/26 00:10:06;;;;;;;16.05;12.27;;;;;;;;;;5077344;28;20538;-79
2023/10/26 00:12:32;;;;;;;17.58;12.57;;;;;;;;;;5074891;28;20489;-79
2023/10/26 00:14:58;;;;;;;19.73;13.18;;;;;;;;;;5067400;28;20047;-79
2023/10/26 00:17:24;;;;;;;18.55;13.05;;;;;;;;;;5076474;28;20036;-79
2023/10/26 00:19:49;;;;;;;19.67;13.98;;;;;;;;;;5074033;28;20047;-79
2023/10/26 00:22:15;;;;;;;19.23;14.07;;;;;;;;;;5057186;28;20506;-79
2023/10/26 00:24:40;;;;;;;18.20;12.93;;;;;;;;;;5067855;28;20055;-79
2023/10/26 00:27:06;;;;;;;20.67;13.65;;;;;;;;;;5073580;28;20114;-78
2023/10/26 00:29:31;;;;;;;18.15;13.23;;;;;;;;;;5055188;28;20078;-79
2023/10/26 00:31:56;;;;;;;18.52;13.07;;;;;;;;;;5059396;28;20036;-79
2023/10/26 00:34:22;;;;;;;20.88;14.35;;;;;;;;;;5073279;28;20204;-79
2023/10/26 00:36:47;;;;;;;19.27;13.55;;;;;;;;;;5071499;28;20395;-79
2023/10/26 00:39:14;;;;;;;19.10;14.38;;;;;;;;;;5074392;28;20064;-79
2023/10/26 00:41:39;;;;;;;18.42;14.55;;;;;;;;;;5075107;28;20067;-79
2023/10/26 00:44:05;;;;;;;20.63;14.02;;;;;;;;;;5072248;28;20063;-79
2023/10/26 00:46:30;;;;;;;19.95;13.70;;;;;;;;;;5071231;28;20040;-79
2023/10/26 00:48:56;;;;;;;19.80;13.98;;;;;;;;;;5074460;28;20043;-78
2023/10/26 00:51:22;;;;;;;19.05;14.20;;;;;;;;;;5074905;28;20031;-78
2023/10/26 00:53:47;;;;;;;21.85;14.48;;;;;;;;;;5071904;28;20418;-78
2023/10/26 00:56:14;;;;;;;21.58;14.60;;;;;;;;;;5074188;28;20033;-79
2023/10/26 00:58:40;;;;;;;19.83;15.15;;;;;;;;;;5070486;28;20042;-79
2023/10/26 01:01:05;;;;;;;23.13;14.82;;;;;;;;;;5064699;28;20499;-79
2023/10/26 01:03:31;;;;;;;21.35;14.90;;;;;;;;;;5070271;28;20036;-79
2023/10/26 01:05:57;;;;;;;19.23;14.00;;;;;;;;;;5072229;28;20032;-79
2023/10/26 01:08:23;;;;;;;23.80;14.75;;;;;;;;;;5060460;28;20115;-78
2023/10/26 01:10:49;;;;;;;21.02;15.00;;;;;;;;;;5074627;28;20028;-78
2023/10/26 01:13:15;;;;;;;20.80;14.90;;;;;;;;;;5065301;28;20054;-79
2023/10/26 01:15:41;;;;;;;22.35;15.00;;;;;;;;;;5073448;28;20044;-78
2023/10/26 01:18:06;;;;;;;20.17;14.52;;;;;;;;;;5058591;28;20041;-79
2023/10/26 01:20:31;;;;;;;23.02;14.77;;;;;;;;;;5057304;28;20044;-79
2023/10/26 01:22:57;;;;;;;20.95;14.77;;;;;;;;;;5071786;28;20128;-79
2023/10/26 01:25:22;;;;;;;21.08;15.50;;;;;;;;;;5073001;28;20032;-78
2023/10/26 01:27:48;;;;;;;22.85;14.93;;;;;;;;;;5068356;28;20047;-80
2023/10/26 01:30:13;;;;;;;20.75;15.18;;;;;;;;;;5072910;28;20101;-79
2023/10/26 01:32:39;;;;;;;22.27;15.85;;;;;;;;;;5072821;28;20085;-79
2023/10/26 01:35:04;;;;;;;22.05;15.98;;;;;;;;;;5064524;28;20032;-79
2023/10/26 01:37:30;;;;;;;22.02;15.13;;;;;;;;;;5054044;28;20480;-79
2023/10/26 01:39:55;;;;;;;24.33;16.48;;;;;;;;;;5074401;28;20408;-80
2023/10/26 01:42:21;;;;;;;22.10;15.55;;;;;;;;;;5063444;28;20099;-79
2023/10/26 01:44:46;;;;;;;22.48;15.70;;;;;;;;;;5054584;28;20623;-79
2023/10/26 01:47:13;;;;;;;25.40;16.33;;;;;;;;;;5074091;28;20047;-79
2023/10/26 01:49:38;;;;;;;23.05;16.40;;;;;;;;;;5072706;28;20377;-79
2023/10/26 01:52:04;;;;;;;22.98;15.80;;;;;;;;;;5072036;28;20063;-80
2023/10/26 01:54:29;;;;;;;23.13;16.05;;;;;;;;;;5071211;28;20516;-79
2023/10/26 01:56:55;;;;;;;21.88;16.10;;;;;;;;;;5058354;28;20483;-79
2023/10/26 01:59:20;;;;;;;26.20;16.13;;;;;;;;;;5071261;28;20036;-80
2023/10/26 02:01:45;;;;;;;21.70;15.10;;;;;;;;;;5069415;28;20079;-80
2023/10/26 02:04:11;;;;;;;21.92;15.63;;;;;;;;;;5070567;28;20120;-80
2023/10/26 02:06:36;;;;;;;24.83;16.70;;;;;;;;;;5059862;28;20036;-80
2023/10/26 02:09:02;;;;;;;22.30;15.75;;;;;;;;;;5070228;28;20165;-79
2023/10/26 02:11:27;;;;;;;23.95;16.08;;;;;;;;;;5070517;28;20520;-79
2023/10/26 02:13:53;;;;;;;23.73;16.13;;;;;;;;;;5074637;28;20040;-79
2023/10/26 02:16:20;;;;;;;22.58;15.75;;;;;;;;;;5063132;28;20123;-81
2023/10/26 02:18:45;;;;;;;23.88;15.98;;;;;;;;;;5058665;28;20037;-79
2023/10/26 02:21:11;;;;;;;23.33;16.08;;;;;;;;;;5054929;28;20056;-80
2023/10/26 02:23:39;;;;;;;23.70;16.42;;;;;;;;;;5072468;28;20127;-79
2023/10/26 02:26:04;;;;;;;22.02;15.60;;;;;;;;;;5072689;28;20040;-80
2023/10/26 02:28:30;;;;;;;23.27;15.90;;;;;;;;;;5040124;28;20495;-80
2023/10/26 02:30:56;;;;;;;21.17;15.77;;;;;;;;;;5039951;28;20181;-80
2023/10/26 02:33:21;;;;;;;21.83;14.35;;;;;;;;;;5075041;28;20044;-80
2023/10/26 02:35:47;;;;;;;23.15;15.55;;;;;;;;;;5073712;28;20037;-79
2023/10/26 02:38:12;;;;;;;21.50;15.43;;;;;;;;;;5065980;28;20032;-80
2023/10/26 02:40:38;;;;;;;22.05;15.88;;;;;;;;;;5065323;28;20043;-79
2023/10/26 02:43:04;;;;;;;23.23;15.30;;;;;;;;;;5075576;28;20048;-80
2023/10/26 02:45:30;;;;;;;23.02;15.85;;;;;;;;;;5074229;28;20119;-80
2023/10/26 02:47:57;;;;;;;20.60;15.23;;;;;;;;;;5068106;28;20067;-80
2023/10/26 02:50:23;;;;;;;20.42;14.63;;;;;;;;;;5076524;28;20559;-80
2023/10/26 02:52:48;;;;;;;23.08;15.57;;;;;;;;;;5074350;28;20158;-80
2023/10/26 02:55:14;;;;;;;22.15;15.15;;;;;;;;;;5074949;28;20036;-80
2023/10/26 02:57:39;;;;;;;21.20;14.88;;;;;;;;;;5076137;28;20024;-80
2023/10/26 03:00:05;;;;;;;20.67;15.13;;;;;;;;;;5073174;28;20051;-81
2023/10/26 03:02:31;;;;;;;23.30;15.50;;;;;;;;;;5079164;28;20044;-81
2023/10/26 03:04:56;;;;;;;22.33;15.43;;;;;;;;;;5062160;28;20047;-80
2023/10/26 03:07:22;;;;;;;22.33;15.10;;;;;;;;;;5048074;28;20045;-81
2023/10/26 03:09:51;;;;;;;21.70;15.93;;;;;;;;;;5039181;28;20037;-79
2023/10/26 03:12:22;;;;;;;26.48;15.90;;;;;;;;;;5031555;28;20048;-80
2023/10/26 03:14:47;;;;;;;21.35;15.27;;;;;;;;;;5043216;28;20751;-80
2023/10/26 03:17:15;;;;;;;23.80;15.90;;;;;;;;;;5054913;28;20029;-80
2023/10/26 03:19:43;;;;;;;;;;;;;;;;;;5066488;28;20113;-80
2023/10/26 03:22:10;;;;;;;21.73;15.00;;;;;;;;;;5051660;28;20419;-79
2023/10/26 03:24:35;;;;;;;22.98;15.38;;;;;;;;;;5055394;28;20047;-79
2023/10/26 03:27:01;;;;;;;23.10;15.65;;;;;;;;;;5034544;28;20170;-78
2023/10/26 03:29:26;;;;;;;25.85;16.33;;;;;;;;;;5047714;28;20074;-79
2023/10/26 03:31:52;;;;;;;23.50;15.43;;;;;;;;;;5058336;28;20061;-79
2023/10/26 03:34:17;;;;;;;27.23;16.83;;;;;;;;;;5047223;28;20075;-79
2023/10/26 03:36:43;;;;;;;25.00;15.52;;;;;;;;;;5050437;28;20033;-78
2023/10/26 03:39:08;;;;;;;27.52;16.92;;;;;;;;;;5044654;28;20033;-79
2023/10/26 03:41:34;;;;;;;22.35;15.27;;;;;;;;;;5038917;28;20060;-80
2023/10/26 03:43:59;;;;;;;26.92;16.95;;;;;;;;;;5039613;28;20041;-79
2023/10/26 03:46:24;;;;;;;24.10;15.48;;;;;;;;;;5054705;28;20064;-79
2023/10/26 03:48:50;;;;;;;26.25;16.60;;;;;;;;;;5040038;28;20041;-80
2023/10/26 03:51:16;;;;;;;24.10;15.75;;;;;;;;;;5037177;28;20305;-78
2023/10/26 03:53:41;;;;;;;26.80;15.60;;;;;;;;;;5055222;28;20111;-79
2023/10/26 03:56:07;;;;;;;27.52;17.17;;;;;;;;;;5052882;28;20489;-79
2023/10/26 03:58:32;;;;;;;25.50;16.77;;;;;;;;;;5041381;28;20052;-79
2023/10/26 04:01:18;;;;;;;25.58;16.75;;;;;;;;;;5040931;28;20376;-79
2023/10/26 04:03:44;;;;;;;28.70;16.85;;;;;;;;;;5008522;28;20052;-80
2023/10/26 04:06:09;;;;;;;26.08;17.20;;;;;;;;;;5027747;28;20037;-80
2023/10/26 04:08:37;;;;;;;28.50;16.35;;;;;;;;;;5026820;28;20575;-80
2023/10/26 04:11:08;;;;;;;24.50;15.77;;;;;;;;;;5011627;28;20038;-79
2023/10/26 04:13:34;;;;;;;28.63;16.83;;;;;;;;;;5014256;28;20037;-79
2023/10/26 04:16:03;;;;;;;25.42;16.25;;;;;;;;;;5000991;28;20061;-79
2023/10/26 04:18:29;;;;;;;26.52;16.35;;;;;;;;;;5014751;28;20440;-79
2023/10/26 04:20:55;;;;;;;26.33;16.17;;;;;;;;;;5009448;28;20078;-78
2023/10/26 04:23:21;;;;;;;24.08;14.85;;;;;;;;;;5043253;28;20033;-78
2023/10/26 04:25:50;;;;;;;24.48;15.65;;;;;;;;;;5025710;28;20838;-78
2023/10/26 04:28:17;;;;;;;23.95;14.32;;;;;;;;;;5042947;28;20044;-78
2023/10/26 04:30:47;;;;;;;25.75;15.55;;;;;;;;;;5015898;28;20098;-77
2023/10/26 04:33:13;;;;;;;22.23;14.38;;;;;;;;;;5024847;28;20124;-77
2023/10/26 04:35:43;;;;;;;22.92;14.32;;;;;;;;;;5023393;28;21246;-78
2023/10/26 04:38:08;;;;;;;21.08;13.05;;;;;;;;;;5007128;28;20032;-78
2023/10/26 04:40:35;;;;;;;20.38;13.73;;;;;;;;;;5036692;28;20041;-77
2023/10/26 04:43:01;;;;;;;21.20;13.55;;;;;;;;;;5071913;28;20048;-77
2023/10/26 04:45:26;;;;;;;20.25;12.82;;;;;;;;;;5064628;28;20089;-78
2023/10/26 04:47:51;;;;;;;24.73;15.18;;;;;;;;;;5037762;28;20492;-78
2023/10/26 04:50:17;;;;;;;21.27;13.13;;;;;;;;;;5036912;28;20041;-77
2023/10/26 04:52:44;;;;;;;21.33;13.32;;;;;;;;;;5054910;28;20053;-79
2023/10/26 04:55:18;;;;;;;20.98;11.98;;;;;;;;;;5042366;28;20033;-79
2023/10/26 04:57:44;;;;;;;23.73;14.05;;;;;;;;;;5032856;28;20396;-79
2023/10/26 05:00:11;;;;;;;22.33;13.40;;;;;;;;;;5034415;28;20044;-79
2023/10/26 05:02:37;;;;;;;19.92;13.65;;;;;;;;;;5053537;28;20033;-79
2023/10/26 05:05:04;;;;;;;20.08;12.60;;;;;;;;;;5038777;28;20507;-78
2023/10/26 05:07:31;;;;;;;19.90;13.38;;;;;;;;;;5043992;28;20723;-78
2023/10/26 05:09:57;;;;;;;20.35;13.45;;;;;;;;;;5045208;28;20025;-78
2023/10/26 05:12:23;;;;;;;22.33;13.50;;;;;;;;;;5037705;28;20065;-79
2023/10/26 05:14:48;;;;;;;22.63;13.30;;;;;;;;;;5053405;28;20122;-78
2023/10/26 05:17:14;;;;;;;21.90;13.65;;;;;;;;;;5052111;28;20033;-78
2023/10/26 05:19:39;;;;;;;21.35;13.10;;;;;;;;;;5052257;28;20044;-79
2023/10/26 05:22:05;;;;;;;21.02;14.02;;;;;;;;;;5035871;28;20051;-78
2023/10/26 05:24:31;;;;;;;22.55;14.13;;;;;;;;;;5044594;28;20129;-76
2023/10/26 05:26:56;;;;;;;20.10;13.30;;;;;;;;;;5054074;28;20064;-76
2023/10/26 05:29:43;;;;;;;20.88;13.02;;;;;;;;;;5051268;28;20405;-77
2023/10/26 05:32:08;;;;;;;20.90;13.40;;;;;;;;;;5039479;28;20039;-78
2023/10/26 05:34:36;;;;;;;19.85;13.30;;;;;;;;;;5019567;28;20037;-78
2023/10/26 05:37:02;;;;;;;19.70;12.68;;;;;;;;;;5033671;28;20139;-75
2023/10/26 05:39:27;;;;;;;20.48;12.43;;;;;;;;;;5046282;28;20071;-77
2023/10/26 05:41:53;;;;;;;20.80;12.48;;;;;;;;;;5016148;28;20628;-76
2023/10/26 05:44:18;;;;;;;19.52;12.30;;;;;;;;;;5046287;28;20089;-77
2023/10/26 05:46:43;;;;;;;18.75;12.45;;;;;;;;;;5026727;28;20132;-77
2023/10/26 05:49:29;;;;;;;20.85;12.80;;;;;;;;;;5047347;28;20041;-77
2023/10/26 05:51:57;;;;;;;19.30;12.63;;;;;;;;;;4954815;28;20100;-77
2023/10/26 05:54:22;;;;;;;22.05;12.75;;;;;;;;;;4956093;28;20105;-77
2023/10/26 05:56:48;;;;;;;21.10;13.63;;;;;;;;;;4958926;28;20430;-78
2023/10/26 05:59:13;;;;;;;19.60;13.05;;;;;;;;;;4957327;28;20070;-78
2023/10/26 06:01:39;;;;;;;20.83;12.65;;;;;;;;;;4936090;28;20042;-78
2023/10/26 06:04:04;;;;;;;21.88;13.52;;;;;;;;;;4957573;28;20090;-78
2023/10/26 06:06:30;;;;;;;22.77;13.90;;;;;;;;;;4962064;28;20062;-78
2023/10/26 06:08:55;;;;;;;20.92;13.13;;;;;;;;;;4965418;28;20046;-78
2023/10/26 06:11:21;;;;;;;23.85;14.35;;;;;;;;;;4975999;28;20038;-78
2023/10/26 06:13:49;;;;;;;21.35;14.00;;;;;;;;;;4975167;28;20070;-78
2023/10/26 06:16:16;;;;;;;22.88;13.10;;;;;;;;;;4950342;28;20498;-78
2023/10/26 06:18:42;;;;;;;20.83;13.63;;;;;;;;;;4953715;28;20885;-78
2023/10/26 06:21:08;;;;;;;21.65;14.30;;;;;;;;;;4953401;28;20033;-78
2023/10/26 06:23:35;;;;;;;21.00;13.60;;;;;;;;;;4984187;28;20038;-78
2023/10/26 06:26:02;;;;;;;20.88;13.55;;;;;;;;;;4966599;28;20046;-77
2023/10/26 06:28:28;;;;;;;21.03;13.87;;;;;;;;;;5002024;28;20049;-77
2023/10/26 06:30:55;;;;;;;21.58;13.63;;;;;;;;;;5038609;28;20479;-77
2023/10/26 06:33:21;;;;;;;24.77;14.63;;;;;;;;;;5038815;28;20036;-78
2023/10/26 06:35:49;;;;;;;27.30;15.02;;;;;;;;;;5053287;28;20029;-78
2023/10/26 06:38:14;;;;;;;21.38;14.55;;;;;;;;;;5053565;28;20037;-78
2023/10/26 06:40:40;;;;;;;23.77;14.75;;;;;;;;;;5040227;28;20138;-78
2023/10/26 06:43:06;;;;;;;22.80;14.35;;;;;;;;;;5053553;28;20811;-78
2023/10/26 06:45:33;;;;;;;23.35;14.32;;;;;;;;;;5052889;28;20094;-77
2023/10/26 06:47:58;;;;;;;24.27;14.60;;;;;;;;;;5055291;28;20137;-78
2023/10/26 06:50:24;;;;;;;23.45;14.85;;;;;;;;;;5053254;28;20132;-78
2023/10/26 06:52:49;;;;;;;23.10;14.80;;;;;;;;;;5056054;28;20041;-78
2023/10/26 06:55:15;;;;;;;22.40;13.85;;;;;;;;;;5051932;28;20063;-78
2023/10/26 06:57:43;;;;;;;21.05;13.93;;;;;;;;;;5037802;28;20091;-78
2023/10/26 07:00:10;;;;;;;21.13;13.80;;;;;;;;;;5052992;28;20339;-79
2023/10/26 07:02:36;;;;;;;22.23;14.40;;;;;;;;;;5056620;28;20461;-78
2023/10/26 07:05:04;;;;;;;23.33;13.98;;;;;;;;;;5037976;28;20396;-77
2023/10/26 07:07:30;;;;;;;;;;;;;;;;;;5031100;28;20664;-77
2023/10/26 07:09:57;;;;;;;19.35;12.77;;;;;;;;;;5032907;28;20410;-79
2023/10/26 07:12:22;;;;;;;23.38;14.05;;;;;;;;;;5052072;28;20071;-78
2023/10/26 07:14:53;;;;;;;21.55;13.90;;;;;;;;;;5041813;28;20033;-78
2023/10/26 07:17:23;;;;;;;21.88;13.35;;;;;;;;;;5050537;28;20044;-77
2023/10/26 07:19:50;;;;;;;22.45;14.27;;;;;;;;;;5055748;28;20029;-78
2023/10/26 07:22:15;;;;;;;20.33;13.13;;;;;;;;;;5059719;28;20032;-79
2023/10/26 07:24:40;;;;;;;20.85;13.82;;;;;;;;;;5074746;28;20032;-78
2023/10/26 07:27:06;;;;;;;19.98;13.25;;;;;;;;;;5057187;28;20831;-78
2023/10/26 07:29:31;;;;;;;21.15;13.20;;;;;;;;;;5046309;28;20421;-78
2023/10/26 07:31:57;;;;;;;19.17;12.98;;;;;;;;;;5046337;28;20879;-78
2023/10/26 07:34:22;;;;;;;21.45;13.98;;;;;;;;;;5039684;28;20044;-78
2023/10/26 07:36:48;;;;;;;21.20;13.45;;;;;;;;;;5051106;28;20058;-78
2023/10/26 07:39:14;;;;;;;20.67;13.45;;;;;;;;;;5065601;28;20039;-79
2023/10/26 07:41:40;;;;;;;21.77;14.20;;;;;;;;;;5055233;28;20140;-78
2023/10/26 07:44:05;;;;;;;23.70;14.02;;;;;;;;;;5045015;28;20086;-78
2023/10/26 07:46:31;;;;;;;25.70;14.75;;;;;;;;;;5054119;28;20458;-78
2023/10/26 07:48:56;;;;;;;24.05;14.18;;;;;;;;;;5067435;28;20036;-78
2023/10/26 07:51:22;;;;;;;20.52;13.52;;;;;;;;;;5064648;28;20399;-79
2023/10/26 07:53:48;;;;;;;19.92;12.75;;;;;;;;;;5060400;28;20040;-78
2023/10/26 07:56:16;;;;;;;20.77;14.20;;;;;;;;;;5056056;28;20569;-78
2023/10/26 07:58:41;;;;;;;20.77;13.40;;;;;;;;;;5038785;28;20081;-78
2023/10/26 08:01:09;;;;;;;22.40;13.27;;;;;;;;;;5050806;28;20373;-78
2023/10/26 08:03:34;;;;;;;19.02;13.25;;;;;;;;;;5054995;28;20496;-78
2023/10/26 08:06:00;;;;;;;21.42;13.18;;;;;;;;;;5057684;28;20040;-78
2023/10/26 08:08:27;;;;;;;19.73;13.27;;;;;;;;;;5043955;28;20041;-78
2023/10/26 08:10:53;;;;;;;22.92;13.18;;;;;;;;;;5059163;28;20082;-78
2023/10/26 08:13:18;;;;;;;21.02;13.30;;;;;;;;;;5057924;28;20033;-78
2023/10/26 08:15:44;;;;;;;22.83;13.75;;;;;;;;;;5052495;28;20400;-78
2023/10/26 08:18:13;;;;;;;19.45;12.93;;;;;;;;;;5037648;28;20079;-78
2023/10/26 08:20:39;;;;;;;20.33;13.68;;;;;;;;;;5040698;28;20036;-79
2023/10/26 08:23:04;;;;;;;21.92;14.20;;;;;;;;;;5049895;28;20047;-78
2023/10/26 08:25:29;;;;;;;21.55;12.82;;;;;;;;;;5049453;28;20040;-78
2023/10/26 08:27:55;;;;;;;20.63;13.65;;;;;;;;;;5053440;28;20037;-78
2023/10/26 08:30:20;;;;;;;22.25;14.40;;;;;;;;;;5054070;28;20094;-79
2023/10/26 08:32:49;;;;;;;22.50;14.45;;;;;;;;;;5038575;28;20039;-78
2023/10/26 08:35:14;;;;;;;21.27;13.75;;;;;;;;;;5045426;28;20076;-78
2023/10/26 08:37:40;;;;;;;26.77;14.73;;;;;;;;;;5037491;28;20035;-78
2023/10/26 08:40:11;;;;;;;22.15;13.82;;;;;;;;;;5053976;28;20554;-78
2023/10/26 08:42:40;;;;;;;20.40;12.95;;;;;;;;;;5049638;28;20516;-78
2023/10/26 08:45:27;;;;;;;21.10;12.95;;;;;;;;;;5037967;28;20390;-78
2023/10/26 08:47:53;;;;;;;19.45;12.90;;;;;;;;;;4990205;28;20064;-77
2023/10/26 08:50:23;;;;;;;19.33;12.70;;;;;;;;;;5006149;28;20086;-78
2023/10/26 08:52:49;;;;;;;19.00;12.93;;;;;;;;;;5060784;28;20496;-78
2023/10/26 08:55:15;;;;;;;22.67;12.55;;;;;;;;;;5069743;28;20047;-78
2023/10/26 08:57:51;;;;;;;20.90;13.40;;;;;;;;;;5072850;28;20114;-79
2023/10/26 09:00:18;;;;;;;18.13;12.30;;;;;;;;;;5075197;28;20043;-79
2023/10/26 09:02:44;;;;;;;19.90;12.57;;;;;;;;;;5064832;28;20052;-78
2023/10/26 09:05:10;;;;;;;20.17;11.93;;;;;;;;;;5052473;28;20020;-78
2023/10/26 09:07:36;;;;;;;18.88;12.35;;;;;;;;;;5070688;28;20035;-78
2023/10/26 09:10:01;;;;;;;19.65;12.55;;;;;;;;;;5070645;28;20032;-78
2023/10/26 09:12:27;;;;;;;19.35;12.52;;;;;;;;;;5080268;28;20029;-79
2023/10/26 09:15:06;;;;;;;18.40;11.80;;;;;;;;;;5040714;28;20395;-76
2023/10/26 09:17:32;;;;;;;19.95;12.55;;;;;;;;;;5045947;28;20120;-77
2023/10/26 09:19:58;;;;;;;17.52;11.95;;;;;;;;;;5044214;28;20045;-77
2023/10/26 09:22:40;;;;;;;18.83;12.25;;;;;;;;;;5019005;28;20049;-77
2023/10/26 09:25:10;;;;;;;18.10;11.52;;;;;;;;;;5053292;28;20089;-78
2023/10/26 09:27:37;;;;;;;19.70;12.18;;;;;;;;;;5041796;28;20040;-78
2023/10/26 09:30:03;;;;;;;18.92;11.15;;;;;;;;;;5060586;28;20036;-78
2023/10/26 09:32:36;;;;;;;17.52;11.80;;;;;;;;;;5035739;28;20064;-78
2023/10/26 09:35:03;;;;;;;17.20;11.90;;;;;;;;;;5044629;28;20033;-78
2023/10/26 09:37:29;;;;;;;16.17;11.05;;;;;;;;;;5051441;28;20044;-78
2023/10/26 09:39:55;;;;;;;17.75;11.30;;;;;;;;;;5045192;28;20043;-78
2023/10/26 09:42:20;;;;;;;16.58;11.27;;;;;;;;;;5055913;28;20105;-78
2023/10/26 09:44:46;;;;;;;16.00;10.80;;;;;;;;;;5044066;28;20458;-78
2023/10/26 09:47:16;;;;;;;18.27;11.02;;;;;;;;;;5052084;28;20098;-78
2023/10/26 09:49:41;;;;;;;17.30;11.23;;;;;;;;;;5067876;28;20036;-77
2023/10/26 09:52:07;;;;;;;18.08;12.10;;;;;;;;;;5051598;28;20061;-78
2023/10/26 09:54:35;;;;;;;16.55;11.50;;;;;;;;;;5043259;28;20951;-77
2023/10/26 09:57:17;;;;;;;16.52;10.95;;;;;;;;;;5033225;28;20515;-77
2023/10/26 09:59:43;;;;;;;17.00;11.32;;;;;;;;;;5042566;28;20045;-78
2023/10/26 10:02:18;;;;;;;15.40;10.82;;;;;;;;;;5047546;28;20067;-78
2023/10/26 10:04:44;;;;;;;16.67;11.68;;;;;;;;;;5055749;28;20052;-78
2023/10/26 10:07:09;;;;;;;15.77;11.30;;;;;;;;;;5049910;28;20500;-78
2023/10/26 10:10:04;;;;;;;19.08;12.73;;;;;;;;;;5036777;28;20048;-77
2023/10/26 10:12:29;;;;;;;16.20;11.30;;;;;;;;;;5053052;28;20042;-78
2023/10/26 10:14:57;;;;;;;15.65;10.23;;;;;;;;;;5051603;28;20443;-78
2023/10/26 10:17:45;;;;;;;16.80;10.73;;;;;;;;;;5069317;28;20071;-78
2023/10/26 10:20:14;;;;;;;17.55;11.65;;;;;;;;;;5073800;28;20078;-78
2023/10/26 10:22:46;;;;;;;17.35;11.27;;;;;;;;;;5072700;28;20074;-78
2023/10/26 10:25:13;;;;;;;14.77;10.48;;;;;;;;;;5066287;28;20029;-78
2023/10/26 10:27:39;;;;;;;13.80;10.45;;;;;;;;;;5070521;28;20768;-78
2023/10/26 10:30:09;;;;;;;15.05;10.40;;;;;;;;;;5056382;28;20120;-78
2023/10/26 10:32:49;;;;;;;14.50;10.45;;;;;;;;;;5051108;28;20408;-77
2023/10/26 10:35:32;;;;;;;14.55;10.50;;;;;;;;;;5071920;28;20357;-78
2023/10/26 10:38:14;;;;;;;14.20;10.45;;;;;;;;;;5077683;28;20510;-78
2023/10/26 10:40:54;;;;;;;17.17;10.52;;;;;;;;;;5072465;28;20028;-77
2023/10/26 10:43:33;;;;;;;14.80;10.32;;;;;;;;;;5063566;28;20152;-78
2023/10/26 10:46:19;;;;;;;16.23;11.00;;;;;;;;;;5057672;28;20408;-77
2023/10/26 10:48:57;;;;;;;14.35;9.75;;;;;;;;;;5064712;28;20543;-78
2023/10/26 10:51:33;;;;;;;;;;;;;;;;;;5051141;28;20036;-78
2023/10/26 10:54:13;;;;;;;13.68;9.45;;;;;;;;;;5068555;28;19923;-77
2023/10/26 10:56:41;;;;;;;12.90;8.65;;;;;;;;;;5049119;28;20040;-78
2023/10/26 10:59:25;;;;;;;14.80;8.70;;;;;;;;;;5048876;28;20076;-79
2023/10/26 11:02:07;;;;;;;12.63;9.13;;;;;;;;;;5052972;28;20223;-77
2023/10/26 11:04:35;;;;;;;11.55;8.93;;;;;;;;;;5033068;28;20080;-78
2023/10/26 11:07:06;;;;;;;12.10;8.35;;;;;;;;;;5065965;28;20036;-79
2023/10/26 11:09:37;;;;;;;12.35;7.60;;;;;;;;;;5061455;28;20064;-77
2023/10/26 11:12:34;;;;;;;11.93;8.10;;;;;;;;;;5038309;28;20033;-77
2023/10/26 11:15:03;;;;;;;12.48;7.85;;;;;;;;;;5072480;28;20124;-77
2023/10/26 11:17:33;;;;;;;13.27;8.20;;;;;;;;;;5072200;28;20399;-78
2023/10/26 11:19:58;;;;;;;11.40;7.97;;;;;;;;;;5073720;28;20094;-77
2023/10/26 11:22:24;;;;;;;12.73;8.50;;;;;;;;;;5056607;28;20368;-79
2023/10/26 11:24:59;;;;;;;11.40;7.85;;;;;;;;;;5064299;28;20122;-78
2023/10/26 11:27:25;;;;;;;12.52;8.98;;;;;;;;;;5036455;28;20063;-79
2023/10/26 11:30:16;;;;;;;12.55;9.02;;;;;;;;;;5039351;28;20563;-77
2023/10/26 11:33:03;;;;;;;13.43;9.68;;;;;;;;;;5029339;28;20127;-78
2023/10/26 11:35:41;;;;;;;13.63;10.00;;;;;;;;;;5053032;27;20036;-78
2023/10/26 11:38:07;;;;;;;14.63;9.80;;;;;;;;;;5037388;28;20703;-78
2023/10/26 11:43:36;;;;;;;16.30;11.02;;;;;;;;;;5036638;28;20065;-78
2023/10/26 11:46:13;;;;;;;20.02;11.63;;;;;;;;;;5012157;28;20420;-78
2023/10/26 11:48:52;;;;;;;16.20;11.80;;;;;;;;;;5046349;28;20491;-79
2023/10/26 11:51:27;;;;;;;17.48;11.88;;;;;;;;;;5024916;28;20649;-79
2023/10/26 11:54:19;;;;;;;17.83;11.85;;;;;;;;;;5034967;28;20034;-78
2023/10/26 11:57:23;;;;;;;18.70;12.25;;;;;;;;;;5060900;28;20640;-78
2023/10/26 12:00:06;;;;;;;21.10;13.25;;;;;;;;;;5028090;28;20114;-77
2023/10/26 12:02:35;;;;;;;19.88;12.65;;;;;;;;;;5030545;28;20048;-77
2023/10/26 12:05:07;;;;;;;20.58;13.23;;;;;;;;;;5050797;28;20036;-77
2023/10/26 12:07:37;;;;;;;18.60;12.77;;;;;;;;;;5071275;28;20673;-78
2023/10/26 12:10:06;;;;;;;20.67;13.15;;;;;;;;;;5042089;28;20140;-78
2023/10/26 12:12:34;;;;;;;20.73;13.05;;;;;;;;;;5043602;28;20387;-78
2023/10/26 12:15:00;;;;;;;20.73;13.07;;;;;;;;;;5048366;28;20074;-78
2023/10/26 12:17:31;;;;;;;21.42;12.88;;;;;;;;;;5046678;28;20048;-78
2023/10/26 12:19:57;;;;;;;20.40;12.93;;;;;;;;;;5066968;28;20054;-77
2023/10/26 12:22:23;;;;;;;18.67;12.85;;;;;;;;;;5019169;28;20040;-77
2023/10/26 12:25:10;;;;;;;19.33;13.02;;;;;;;;;;5027499;28;20188;-77
2023/10/26 12:27:35;;;;;;;20.58;13.25;;;;;;;;;;5036263;28;20396;-77
2023/10/26 12:30:01;;;;;;;20.00;12.40;;;;;;;;;;5064247;28;20043;-78
2023/10/26 12:32:27;;;;;;;18.83;12.18;;;;;;;;;;5007194;28;20036;-78
2023/10/26 12:34:55;;;;;;;19.27;13.13;;;;;;;;;;5073521;28;20032;-78
2023/10/26 12:37:20;;;;;;;18.27;12.05;;;;;;;;;;5045694;28;20149;-77
2023/10/26 12:39:55;;;;;;;18.17;11.93;;;;;;;;;;5054718;28;20118;-78
2023/10/26 12:42:24;;;;;;;18.17;12.23;;;;;;;;;;5055129;28;20541;-77
2023/10/26 12:45:02;;;;;;;17.15;11.68;;;;;;;;;;5051343;28;20133;-79
2023/10/26 12:47:39;;;;;;;;;;;;;;;;;;5044201;28;20043;-78
2023/10/26 12:50:06;;;;;;;;;;;;;;;;;;5014607;28;20784;-78
2023/10/26 12:52:32;;;;;;;19.23;11.98;;;;;;;;;;5069844;28;19912;-78
2023/10/26 12:54:58;;;;;;;18.38;11.82;;;;;;;;;;5064746;28;20043;-78
2023/10/26 12:57:23;;;;;;;17.65;11.90;;;;;;;;;;5052718;28;20040;-79
2023/10/26 12:59:50;;;;;;;18.17;11.95;;;;;;;;;;5060794;28;20127;-79
2023/10/26 13:02:15;;;;;;;19.58;12.18;;;;;;;;;;5048127;28;20036;-78
2023/10/26 13:04:40;;;;;;;19.35;13.15;;;;;;;;;;5057741;28;20812;-79
2023/10/26 13:07:06;;;;;;;17.73;12.27;;;;;;;;;;5069787;28;20032;-78
2023/10/26 13:09:41;;;;;;;17.65;11.85;;;;;;;;;;5052153;28;20071;-78
2023/10/26 13:12:13;;;;;;;16.70;10.68;;;;;;;;;;5037967;28;20768;-78
2023/10/26 13:14:50;;;;;;;18.23;11.55;;;;;;;;;;5023060;28;20101;-79
2023/10/26 13:17:18;;;;;;;20.37;11.80;;;;;;;;;;5043266;28;20124;-78
2023/10/26 13:19:44;;;;;;;15.88;10.75;;;;;;;;;;5024245;28;20771;-78
2023/10/26 13:22:13;;;;;;;18.00;11.73;;;;;;;;;;5013116;28;20040;-78
2023/10/26 13:24:38;;;;;;;18.70;11.40;;;;;;;;;;5027936;28;20036;-78
2023/10/26 13:27:19;;;;;;;19.40;12.48;;;;;;;;;;5012098;28;20403;-78
2023/10/26 13:32:46;;;;;;;20.02;11.85;;;;;;;;;;5048741;28;20964;-78
2023/10/26 13:35:20;;;;;;;17.73;11.82;;;;;;;;;;5042269;28;20032;-78
2023/10/26 13:38:17;;;;;;;18.52;11.63;;;;;;;;;;4998238;28;20047;-78
2023/10/26 13:40:46;;;;;;;19.63;11.77;;;;;;;;;;5015154;28;20032;-78
2023/10/26 13:43:15;;;;;;;19.52;11.45;;;;;;;;;;5023064;28;20093;-79
2023/10/26 13:45:41;;;;;;;18.23;11.82;;;;;;;;;;5040046;28;20115;-79
2023/10/26 13:48:07;;;;;;;17.77;11.85;;;;;;;;;;5028608;28;20076;-79
2023/10/26 13:50:34;;;;;;;20.90;13.07;;;;;;;;;;5051934;28;20167;-79
2023/10/26 13:53:05;;;;;;;20.60;12.38;;;;;;;;;;5037566;28;20036;-76
2023/10/26 13:55:40;;;;;;;19.92;12.60;;;;;;;;;;5027010;28;20037;-77
2023/10/26 13:58:06;;;;;;;19.95;12.55;;;;;;;;;;5023931;28;20586;-77
2023/10/26 14:00:39;;;;;;;20.67;12.80;;;;;;;;;;5034889;28;20040;-77
2023/10/26 14:03:08;;;;;;;21.13;12.77;;;;;;;;;;5059556;28;20526;-77
2023/10/26 14:05:37;;;;;;;20.70;12.90;;;;;;;;;;5038270;28;20043;-78
2023/10/26 14:08:26;;;;;;;18.67;12.30;;;;;;;;;;5018585;28;20463;-77
2023/10/26 14:10:55;;;;;;;19.58;12.07;;;;;;;;;;5030843;28;20542;-79
2023/10/26 14:13:32;;;;;;;19.58;12.63;;;;;;;;;;5012002;28;20023;-79
2023/10/26 14:15:57;;;;;;;19.50;12.85;;;;;;;;;;4992042;28;20366;-79
2023/10/26 14:18:23;;;;;;;19.83;12.27;;;;;;;;;;4993664;28;20036;-78
2023/10/26 14:20:48;;;;;;;21.35;13.43;;;;;;;;;;5022452;28;20293;-79
2023/10/26 14:23:14;;;;;;;22.48;14.57;;;;;;;;;;5035946;28;20085;-78
2023/10/26 14:25:41;;;;;;;20.55;13.43;;;;;;;;;;5039050;28;20044;-78
2023/10/26 14:28:06;;;;;;;20.47;12.87;;;;;;;;;;5021095;28;20466;-78
2023/10/26 14:30:37;;;;;;;21.50;13.27;;;;;;;;;;5029296;28;20339;-78